Time;durP1;ratioP1;P1;durP2;ratioP2;P2;SDS_P1;SDS_P2;PMS_P1;PMS_P2;Temp;Humidity;BMP_temperature;BMP_pressure;BME280_temperature;BME280_humidity;BME280_pressure;Samples;Min_cycle;Max_cycle;Signal;HPM_P1;HPM_P2
2024/01/27 00:04:29;;;;;;;0.70;0.50;;;23.30;52.40;;;;;;221622;1254;24267;-56
2024/01/27 00:09:34;;;;;;;1.60;0.60;;;23.20;52.70;;;;;;221909;1266;24302;-56
2024/01/27 00:14:39;;;;;;;1.00;0.70;;;23.10;52.90;;;;;;221813;1264;22689;-56
2024/01/27 00:19:43;;;;;;;1.20;0.70;;;23.10;53.30;;;;;;222087;1263;26281;-53
2024/01/27 00:24:48;;;;;;;1.10;0.80;;;23.00;53.40;;;;;;222104;1267;24197;-55
2024/01/27 00:29:53;;;;;;;5.50;0.80;;;23.00;53.60;;;;;;221861;1269;25602;-55
2024/01/27 00:34:57;;;;;;;2.20;0.60;;;22.90;53.70;;;;;;221782;1254;24346;-57
2024/01/27 00:40:03;;;;;;;0.70;0.70;;;22.90;53.80;;;;;;221833;1257;25876;-56
2024/01/27 00:45:07;;;;;;;1.40;0.90;;;22.90;53.80;;;;;;222299;1269;26510;-56
2024/01/27 00:50:12;;;;;;;4.40;1.20;;;22.90;54.00;;;;;;222137;1269;25584;-57
2024/01/27 00:55:17;;;;;;;6.30;1.20;;;23.00;54.90;;;;;;222098;1263;22579;-56
2024/01/27 01:00:21;;;;;;;3.30;0.80;;;23.00;55.10;;;;;;222005;1270;24173;-54
2024/01/27 01:05:25;;;;;;;5.50;1.10;;;23.20;54.80;;;;;;221722;1257;25342;-54
2024/01/27 01:10:29;;;;;;;1.10;1.00;;;23.40;54.30;;;;;;221953;1255;24202;-56
2024/01/27 01:15:34;;;;;;;8.60;1.10;;;23.40;54.10;;;;;;222107;1250;23017;-56
2024/01/27 01:20:38;;;;;;;1.90;0.70;;;23.40;54.60;;;;;;222179;1257;22968;-55
2024/01/27 01:25:42;;;;;;;1.80;0.90;;;23.30;54.00;;;;;;222186;1257;24205;-55
2024/01/27 01:30:46;;;;;;;1.70;0.60;;;23.30;54.00;;;;;;221883;1269;22537;-56
2024/01/27 01:35:51;;;;;;;2.50;0.70;;;23.20;54.00;;;;;;221876;1258;24277;-55
2024/01/27 01:40:55;;;;;;;3.00;1.00;;;23.20;53.70;;;;;;222009;1267;25533;-56
2024/01/27 01:46:00;;;;;;;1.50;0.90;;;23.10;53.70;;;;;;221813;1267;24335;-55
2024/01/27 01:51:05;;;;;;;1.70;0.80;;;23.10;53.40;;;;;;222356;1263;25234;-54
2024/01/27 01:56:15;;;;;;;1.10;0.70;;;23.20;53.50;;;;;;221975;1263;22698;-56
2024/01/27 02:01:21;;;;;;;3.50;0.80;;;23.30;53.30;;;;;;223062;1262;22664;-54
2024/01/27 02:06:25;;;;;;;1.20;0.70;;;23.30;53.00;;;;;;222368;1254;23134;-55
2024/01/27 02:11:29;;;;;;;1.10;0.80;;;23.30;52.60;;;;;;221952;1258;22514;-56
2024/01/27 02:16:34;;;;;;;1.90;0.70;;;23.30;52.60;;;;;;222203;1266;24269;-56
2024/01/27 02:21:38;;;;;;;1.80;1.00;;;23.30;52.60;;;;;;221930;1266;22648;-56
2024/01/27 02:26:43;;;;;;;1.00;0.60;;;23.20;52.60;;;;;;221837;1264;24228;-56
2024/01/27 02:31:47;;;;;;;1.30;0.60;;;23.10;52.50;;;;;;221789;1265;24193;-54
2024/01/27 02:36:51;;;;;;;0.70;0.50;;;22.90;52.80;;;;;;221744;1256;24321;-56
2024/01/27 02:41:55;;;;;;;1.40;0.80;;;23.00;52.60;;;;;;221698;1269;25527;-56
2024/01/27 02:46:59;;;;;;;0.60;0.60;;;23.20;52.10;;;;;;222181;1263;24386;-55
2024/01/27 02:52:03;;;;;;;2.30;0.70;;;23.40;51.60;;;;;;221792;1267;22524;-58
2024/01/27 02:57:07;;;;;;;1.30;0.60;;;23.30;51.70;;;;;;222152;1256;22530;-56
2024/01/27 03:02:13;;;;;;;1.70;0.80;;;23.30;51.80;;;;;;221995;1265;22567;-56
2024/01/27 03:07:16;;;;;;;1.10;0.50;;;23.20;52.40;;;;;;221810;1262;24208;-55
2024/01/27 03:12:22;;;;;;;2.10;0.80;;;23.20;51.80;;;;;;222176;1265;24266;-56
2024/01/27 03:17:27;;;;;;;1.30;0.70;;;23.10;51.70;;;;;;221940;1264;22526;-55
2024/01/27 03:22:31;;;;;;;3.30;0.70;;;23.10;52.00;;;;;;221775;1264;22542;-56
2024/01/27 03:27:35;;;;;;;1.40;0.80;;;23.00;51.90;;;;;;222052;1262;25385;-54
2024/01/27 03:32:40;;;;;;;0.90;0.50;;;23.00;52.00;;;;;;221971;1269;24717;-54
2024/01/27 03:37:45;;;;;;;1.90;0.80;;;23.00;51.90;;;;;;221776;1259;22784;-55
2024/01/27 03:42:49;;;;;;;1.70;0.80;;;23.00;51.90;;;;;;221845;1269;24215;-55
2024/01/27 03:47:53;;;;;;;0.50;0.50;;;23.00;51.70;;;;;;221963;1259;24715;-57
2024/01/27 03:52:58;;;;;;;1.20;0.60;;;23.10;51.40;;;;;;222119;1267;22532;-57
2024/01/27 03:58:02;;;;;;;1.80;0.70;;;23.00;51.50;;;;;;222272;1254;22527;-55
2024/01/27 04:03:08;;;;;;;0.90;0.50;;;23.00;51.80;;;;;;221995;1264;24202;-56
2024/01/27 04:08:15;;;;;;;0.80;0.60;;;22.80;51.80;;;;;;222045;1262;24196;-56
2024/01/27 04:13:19;;;;;;;1.90;0.80;;;22.90;51.70;;;;;;222134;1264;22533;-57
2024/01/27 04:18:23;;;;;;;2.20;0.70;;;22.90;51.30;;;;;;221840;1266;25140;-58
2024/01/27 04:23:28;;;;;;;0.50;0.30;;;23.00;51.60;;;;;;221954;1264;24274;-57
2024/01/27 04:28:32;;;;;;;0.90;0.70;;;23.20;51.30;;;;;;221955;1262;24206;-56
2024/01/27 04:33:36;;;;;;;1.40;0.50;;;23.30;50.80;;;;;;221900;1262;24318;-54
2024/01/27 04:38:43;;;;;;;2.70;0.70;;;23.30;50.80;;;;;;222287;1263;24187;-56
2024/01/27 04:43:47;;;;;;;1.40;0.80;;;23.30;50.80;;;;;;221953;1269;25339;-56
2024/01/27 04:48:51;;;;;;;2.00;0.60;;;23.30;50.80;;;;;;222256;1265;24205;-57
2024/01/27 04:53:56;;;;;;;0.70;0.60;;;23.20;51.00;;;;;;222031;1269;23137;-56
2024/01/27 04:59:00;;;;;;;0.80;0.60;;;23.10;51.00;;;;;;222080;1255;23543;-54
2024/01/27 05:04:04;;;;;;;1.40;0.80;;;23.10;50.90;;;;;;221946;1265;24350;-56
2024/01/27 05:09:08;;;;;;;3.50;0.80;;;23.10;51.00;;;;;;222050;1269;22800;-55
2024/01/27 05:14:13;;;;;;;1.10;0.60;;;23.10;51.00;;;;;;222164;1256;25597;-54
2024/01/27 05:19:17;;;;;;;0.80;0.60;;;23.00;51.20;;;;;;222433;1262;25592;-55
2024/01/27 05:24:22;;;;;;;0.60;0.50;;;22.90;51.20;;;;;;222244;1258;25316;-55
2024/01/27 05:29:27;;;;;;;1.10;0.80;;;22.80;51.20;;;;;;221828;1262;239014;-56
2024/01/27 05:34:32;;;;;;;1.10;0.50;;;22.80;51.60;;;;;;222183;1262;22990;-56
2024/01/27 05:39:37;;;;;;;0.60;0.40;;;22.80;51.60;;;;;;222078;1267;24096;-55
2024/01/27 05:44:41;;;;;;;2.10;0.70;;;22.80;51.40;;;;;;222449;1267;22628;-56
2024/01/27 05:49:46;;;;;;;1.20;0.80;;;22.80;51.30;;;;;;222292;1265;24229;-55
2024/01/27 05:54:51;;;;;;;1.50;0.80;;;22.80;51.20;;;;;;222328;1255;24179;-56
2024/01/27 05:59:56;;;;;;;1.60;0.70;;;22.80;51.20;;;;;;221988;1257;24328;-57
2024/01/27 06:05:01;;;;;;;1.20;0.80;;;22.70;51.20;;;;;;222243;1265;24257;-56
2024/01/27 06:10:08;;;;;;;0.80;0.60;;;22.70;51.10;;;;;;222188;1269;26526;-56
2024/01/27 06:15:12;;;;;;;1.40;0.70;;;22.70;51.10;;;;;;222143;1262;24196;-58
2024/01/27 06:20:18;;;;;;;2.40;0.80;;;22.70;51.10;;;;;;222184;1267;25151;-57
2024/01/27 06:25:22;;;;;;;0.70;0.60;;;22.60;51.50;;;;;;222121;1265;24379;-56
2024/01/27 06:30:26;;;;;;;0.60;0.60;;;22.80;50.80;;;;;;222078;1257;24197;-55
2024/01/27 06:35:31;;;;;;;1.00;0.60;;;23.00;50.70;;;;;;222194;1268;24189;-57
2024/01/27 06:40:35;;;;;;;0.50;0.50;;;23.20;50.00;;;;;;222137;1269;24221;-56
2024/01/27 06:45:40;;;;;;;2.00;0.70;;;23.30;50.00;;;;;;222248;1262;22550;-55
2024/01/27 06:50:44;;;;;;;1.70;0.60;;;23.20;50.40;;;;;;222304;1253;22527;-56
2024/01/27 06:55:48;;;;;;;1.10;0.60;;;23.10;50.40;;;;;;222197;1266;22690;-58
2024/01/27 07:00:53;;;;;;;0.70;0.50;;;23.00;50.10;;;;;;221931;1264;22633;-56
2024/01/27 07:06:02;;;;;;;2.00;0.40;;;23.10;49.90;;;;;;222092;1253;22537;-55
2024/01/27 07:11:06;;;;;;;1.10;0.60;;;23.10;50.70;;;;;;222021;1246;22976;-55
2024/01/27 07:16:12;;;;;;;1.40;0.80;;;23.10;50.00;;;;;;220781;1262;26498;-55
2024/01/27 07:21:16;;;;;;;1.10;0.70;;;23.10;50.20;;;;;;220315;1274;24268;-57
2024/01/27 07:26:21;;;;;;;1.30;0.70;;;23.20;50.20;;;;;;220235;1273;22523;-57
2024/01/27 07:31:26;;;;;;;1.10;0.60;;;23.20;50.40;;;;;;220265;1251;23947;-57
2024/01/27 07:36:32;;;;;;;2.20;0.60;;;23.10;50.30;;;;;;221052;1267;23918;-57
2024/01/27 07:41:37;;;;;;;1.00;0.80;;;23.10;50.10;;;;;;221129;1274;24225;-56
2024/01/27 07:46:41;;;;;;;0.80;0.70;;;23.00;50.10;;;;;;221670;1263;25079;-55
2024/01/27 07:51:46;;;;;;;3.70;0.70;;;23.00;50.30;;;;;;221922;1262;22568;-57
2024/01/27 07:56:50;;;;;;;1.00;0.60;;;22.80;51.20;;;;;;222118;1260;25728;-57
2024/01/27 08:01:55;;;;;;;1.10;0.60;;;22.80;50.30;;;;;;222385;1266;24244;-57
2024/01/27 08:07:05;;;;;;;2.00;0.70;;;22.80;50.50;;;;;;221932;1266;22721;-57
2024/01/27 08:12:10;;;;;;;1.50;0.50;;;22.80;50.30;;;;;;222131;1259;22612;-56
2024/01/27 08:17:14;;;;;;;0.80;0.60;;;22.60;50.60;;;;;;222137;1246;22757;-56
2024/01/27 08:22:19;;;;;;;0.80;0.60;;;22.70;50.80;;;;;;222305;1262;24089;-56
2024/01/27 08:27:23;;;;;;;1.60;0.60;;;22.90;50.90;;;;;;222033;1262;22635;-56
2024/01/27 08:32:28;;;;;;;1.10;0.50;;;23.00;50.40;;;;;;221957;1265;24235;-56
2024/01/27 08:37:38;;;;;;;0.70;0.60;;;23.00;50.10;;;;;;222000;1262;24205;-55
2024/01/27 08:42:43;;;;;;;3.30;0.70;;;23.00;50.00;;;;;;222071;1268;22830;-56
2024/01/27 08:47:48;;;;;;;1.50;0.80;;;23.10;50.00;;;;;;222118;1266;23926;-56
2024/01/27 08:52:53;;;;;;;1.30;0.70;;;23.00;50.10;;;;;;222412;1267;22520;-57
2024/01/27 08:57:57;;;;;;;1.50;0.70;;;22.80;50.50;;;;;;222304;1264;22570;-53
2024/01/27 09:03:03;;;;;;;1.00;0.50;;;22.80;50.20;;;;;;222001;1270;22658;-55
2024/01/27 09:08:08;;;;;;;0.70;0.50;;;22.70;50.70;;;;;;222133;1266;25375;-56
2024/01/27 09:13:13;;;;;;;1.20;0.70;;;22.70;50.70;;;;;;222071;1264;22625;-57
2024/01/27 09:18:18;;;;;;;1.20;0.80;;;22.60;50.70;;;;;;221978;1266;22970;-55
2024/01/27 09:23:25;;;;;;;7.40;0.90;;;22.60;50.70;;;;;;222507;1249;22605;-56
2024/01/27 09:28:29;;;;;;;1.20;0.60;;;22.60;51.10;;;;;;221844;1262;22521;-57
2024/01/27 09:33:35;;;;;;;1.20;0.80;;;22.60;51.30;;;;;;221911;1269;23779;-58
2024/01/27 09:38:40;;;;;;;3.60;0.80;;;22.60;51.40;;;;;;221691;1262;24176;-59
2024/01/27 09:43:47;;;;;;;2.80;0.90;;;22.50;51.50;;;;;;221499;1262;24489;-57
2024/01/27 09:48:53;;;;;;;2.30;0.70;;;22.50;52.10;;;;;;221627;1251;24160;-58
2024/01/27 09:53:58;;;;;;;6.00;0.80;;;22.50;52.30;;;;;;221630;1262;24218;-57
2024/01/27 09:59:05;;;;;;;5.00;1.10;;;22.40;52.50;;;;;;221731;1268;23364;-57
2024/01/27 10:04:09;;;;;;;4.70;1.40;;;22.30;53.00;;;;;;221798;1255;22523;-57
2024/01/27 10:09:15;;;;;;;8.20;1.20;;;22.30;53.10;;;;;;221786;1256;22567;-56
2024/01/27 10:14:20;;;;;;;3.10;1.20;;;22.70;52.90;;;;;;221697;1268;22536;-57
2024/01/27 10:19:25;;;;;;;3.50;1.30;;;22.90;52.20;;;;;;222257;1270;24224;-58
2024/01/27 10:24:35;;;;;;;3.30;1.10;;;23.10;51.70;;;;;;221928;1263;25338;-58
2024/01/27 10:29:39;;;;;;;1.40;0.80;;;23.10;51.40;;;;;;221732;1267;25451;-58
2024/01/27 10:34:44;;;;;;;2.60;1.20;;;23.00;52.00;;;;;;221691;1269;22647;-57
2024/01/27 10:39:49;;;;;;;5.50;1.30;;;23.10;51.30;;;;;;222009;1268;22943;-59
2024/01/27 10:44:57;;;;;;;3.50;1.10;;;23.00;51.10;;;;;;221747;1258;22591;-61
2024/01/27 10:50:02;;;;;;;4.60;1.30;;;23.00;51.30;;;;;;221637;1262;22726;-57
2024/01/27 10:55:09;;;;;;;6.30;1.30;;;23.00;51.20;;;;;;229851;1263;22320;-60
2024/01/27 11:00:15;;;;;;;5.40;1.20;;;23.00;51.00;;;;;;222304;1268;24197;-58
2024/01/27 11:05:20;;;;;;;3.00;1.30;;;23.00;50.70;;;;;;223258;1267;24228;-59
2024/01/27 11:10:26;;;;;;;5.00;1.60;;;23.00;51.70;;;;;;221645;1267;22605;-57
2024/01/27 11:15:30;;;;;;;3.10;1.30;;;22.80;51.70;;;;;;221966;1268;22510;-54
2024/01/27 11:20:36;;;;;;;6.50;2.20;;;22.80;51.80;;;;;;222324;1268;24375;-52
2024/01/27 11:25:45;;;;;;;4.70;1.40;;;22.80;50.90;;;;;;221726;1268;22538;-54
2024/01/27 11:30:49;;;;;;;3.20;1.30;;;22.70;50.60;;;;;;226813;1256;22533;-55
2024/01/27 11:36:04;;;;;;;3.90;1.20;;;22.70;51.00;;;;;;220950;1251;24218;-53
2024/01/27 11:41:09;;;;;;;4.60;1.30;;;22.70;50.30;;;;;;228909;1272;22247;-56
2024/01/27 11:46:15;;;;;;;6.40;1.40;;;22.70;50.20;;;;;;223841;1263;24350;-52
2024/01/27 11:51:20;;;;;;;5.80;1.60;;;22.70;49.90;;;;;;220989;1267;22635;-56
2024/01/27 11:56:25;;;;;;;6.60;1.60;;;22.80;50.00;;;;;;221875;1262;24293;-53
2024/01/27 12:01:30;;;;;;;3.60;1.40;;;22.90;49.80;;;;;;221829;1267;24591;-52
2024/01/27 12:06:37;;;;;;;6.20;1.70;;;23.10;49.20;;;;;;222241;1265;25325;-57
2024/01/27 12:11:41;;;;;;;7.70;1.60;;;23.20;49.70;;;;;;222206;1265;22526;-54
2024/01/27 12:16:47;;;;;;;4.60;1.60;;;23.30;49.40;;;;;;222188;1259;24229;-52
2024/01/27 12:21:52;;;;;;;5.60;1.10;;;23.30;49.50;;;;;;222294;1267;25348;-55
2024/01/27 12:26:59;;;;;;;3.20;1.30;;;23.30;50.00;;;;;;221947;1266;22520;-56
2024/01/27 12:32:04;;;;;;;2.40;1.00;;;23.20;49.60;;;;;;221689;1256;25380;-52
2024/01/27 12:37:13;;;;;;;4.20;1.50;;;23.10;50.20;;;;;;222066;1265;24289;-55
2024/01/27 12:42:18;;;;;;;3.50;1.20;;;23.10;50.50;;;;;;222091;1265;23182;-52
2024/01/27 12:47:22;;;;;;;2.40;1.10;;;23.10;50.80;;;;;;221988;1262;24180;-50
2024/01/27 12:52:27;;;;;;;2.60;1.60;;;23.00;50.80;;;;;;222052;1264;22682;-49
2024/01/27 12:57:32;;;;;;;3.60;1.30;;;23.00;50.90;;;;;;221964;1260;22524;-52
2024/01/27 13:02:37;;;;;;;5.30;1.10;;;23.00;51.10;;;;;;222032;1269;22637;-54
2024/01/27 13:07:44;;;;;;;2.50;0.80;;;22.90;51.00;;;;;;221760;1252;22639;-52
2024/01/27 13:12:49;;;;;;;4.80;0.90;;;22.90;51.10;;;;;;221988;1255;22689;-61
2024/01/27 13:17:54;;;;;;;6.70;1.10;;;22.90;50.80;;;;;;221504;1264;24183;-58
2024/01/27 13:22:59;;;;;;;6.20;1.30;;;22.80;50.70;;;;;;221765;1269;26617;-57
2024/01/27 13:28:03;;;;;;;28.70;6.40;;;22.80;50.60;;;;;;221894;1263;24847;-59
2024/01/27 13:33:08;;;;;;;23.90;4.00;;;22.80;51.80;;;;;;221941;1246;24385;-58
2024/01/27 13:38:13;;;;;;;17.60;2.80;;;22.70;50.80;;;;;;222150;1265;23905;-58
2024/01/27 13:43:18;;;;;;;7.50;2.90;;;22.70;50.70;;;;;;220957;1269;23939;-59
2024/01/27 13:48:23;;;;;;;11.30;2.10;;;22.80;49.70;;;;;;221035;1269;24202;-57
2024/01/27 13:53:28;;;;;;;11.40;2.40;;;22.70;50.60;;;;;;220937;1253;24355;-57
2024/01/27 13:58:49;;;;;;;11.10;2.40;;;22.70;50.80;;;;;;220964;1263;22587;-58
2024/01/27 14:03:53;;;;;;;14.30;2.90;;;22.60;53.30;;;;;;221633;1268;25456;-58
2024/01/27 14:09:00;;;;;;;6.30;2.60;;;22.60;51.80;;;;;;222007;1262;22540;-59
2024/01/27 14:14:05;;;;;;;10.00;2.30;;;22.80;52.00;;;;;;221997;1266;25325;-60
2024/01/27 14:19:10;;;;;;;8.20;2.20;;;23.00;51.00;;;;;;221793;1269;23947;-60
2024/01/27 14:24:15;;;;;;;9.10;1.90;;;23.20;50.10;;;;;;222022;1266;25211;-59
2024/01/27 14:29:19;;;;;;;9.00;1.90;;;23.20;50.30;;;;;;221533;1266;23140;-59
2024/01/27 14:34:25;;;;;;;4.90;1.80;;;23.40;50.10;;;;;;222388;1266;22521;-56
2024/01/27 14:39:30;;;;;;;8.50;2.10;;;23.30;50.60;;;;;;221770;1266;23899;-59
2024/01/27 14:44:35;;;;;;;6.40;1.80;;;23.30;50.00;;;;;;221960;1263;22522;-58
2024/01/27 14:49:43;;;;;;;7.00;1.90;;;23.20;49.70;;;;;;222028;1269;24062;-60
2024/01/27 14:54:48;;;;;;;4.90;2.30;;;23.20;49.60;;;;;;222092;1266;22520;-60
2024/01/27 14:59:53;;;;;;;5.80;1.60;;;23.30;49.70;;;;;;221999;1266;22755;-59
2024/01/27 15:04:58;;;;;;;6.00;1.40;;;23.10;49.80;;;;;;222205;1267;22528;-57
2024/01/27 15:10:05;;;;;;;6.20;2.00;;;23.00;49.80;;;;;;222081;1269;25471;-58
2024/01/27 15:15:09;;;;;;;4.60;1.50;;;23.00;50.10;;;;;;221668;1268;22553;-60
2024/01/27 15:20:14;;;;;;;18.20;1.90;;;22.90;50.00;;;;;;221956;1270;22601;-57
2024/01/27 15:25:20;;;;;;;8.20;1.70;;;22.90;50.00;;;;;;221665;1265;24378;-57
2024/01/27 15:30:25;;;;;;;8.60;2.00;;;22.90;50.00;;;;;;222177;1263;24208;-59
2024/01/27 15:35:32;;;;;;;4.80;3.30;;;22.80;50.50;;;;;;221923;1269;24194;-59
2024/01/27 15:40:38;;;;;;;4.10;2.90;;;22.80;51.70;;;;;;221969;1255;24173;-59
2024/01/27 15:45:44;;;;;;;7.40;3.70;;;22.80;52.80;;;;;;221972;1262;22562;-54
2024/01/27 15:50:49;;;;;;;10.70;3.30;;;22.70;53.70;;;;;;222060;1269;25414;-55
2024/01/27 15:55:54;;;;;;;9.80;4.30;;;22.60;53.80;;;;;;222121;1266;24264;-56
2024/01/27 16:00:59;;;;;;;17.40;4.50;;;22.50;54.10;;;;;;222027;1268;23761;-55
2024/01/27 16:06:05;;;;;;;12.40;4.20;;;22.60;54.60;;;;;;222230;1258;26538;-55
2024/01/27 16:11:09;;;;;;;9.40;4.00;;;22.60;54.60;;;;;;222114;1269;24244;-55
2024/01/27 16:16:14;;;;;;;11.10;4.10;;;22.60;54.00;;;;;;221902;1269;26528;-57
2024/01/27 16:21:18;;;;;;;11.30;4.20;;;22.70;54.00;;;;;;221817;1263;24372;-57
2024/01/27 16:26:24;;;;;;;10.00;3.80;;;22.60;55.40;;;;;;222036;1269;24452;-55
2024/01/27 16:31:28;;;;;;;10.80;3.70;;;22.60;55.80;;;;;;221774;1264;25205;-51
2024/01/27 16:36:33;;;;;;;12.10;3.80;;;22.80;53.90;;;;;;221963;1264;22554;-50
2024/01/27 16:41:38;;;;;;;9.10;3.40;;;23.10;54.10;;;;;;222011;1269;25470;-52
2024/01/27 16:46:45;;;;;;;10.50;3.10;;;23.00;53.70;;;;;;221468;1266;25060;-49
2024/01/27 16:51:51;;;;;;;10.20;3.40;;;23.10;53.70;;;;;;221909;1270;22553;-52
2024/01/27 16:56:58;;;;;;;8.80;2.90;;;23.10;53.50;;;;;;221919;1268;25269;-51
2024/01/27 17:02:04;;;;;;;7.40;2.90;;;22.90;53.40;;;;;;221853;1266;24202;-55
2024/01/27 17:07:09;;;;;;;6.10;2.70;;;22.90;53.40;;;;;;222101;1268;22533;-52
2024/01/27 17:12:14;;;;;;;11.10;3.00;;;22.90;53.40;;;;;;221871;1257;24227;-52
2024/01/27 17:17:19;;;;;;;15.40;3.50;;;22.80;53.30;;;;;;223530;1267;24364;-56
2024/01/27 17:22:23;;;;;;;9.30;2.60;;;22.90;52.70;;;;;;221865;1258;25294;-56
2024/01/27 17:27:28;;;;;;;5.60;2.40;;;22.90;52.70;;;;;;221173;1264;965010;-55
2024/01/27 17:32:34;;;;;;;8.10;2.50;;;22.90;53.10;;;;;;221773;1264;22548;-55
2024/01/27 17:37:38;;;;;;;7.10;2.70;;;23.00;52.60;;;;;;222356;1264;22534;-50
2024/01/27 17:42:43;;;;;;;8.90;2.40;;;22.80;51.70;;;;;;222039;1267;24206;-51
2024/01/27 17:47:51;;;;;;;9.90;3.40;;;22.80;52.00;;;;;;221692;1267;24086;-54
2024/01/27 17:52:56;;;;;;;6.90;2.80;;;22.80;51.90;;;;;;221780;1270;23952;-56
2024/01/27 17:58:01;;;;;;;7.00;2.50;;;22.80;51.60;;;;;;221678;1264;22560;-56
2024/01/27 18:03:05;;;;;;;10.40;3.20;;;22.90;51.30;;;;;;222036;1270;25284;-52
2024/01/27 18:08:10;;;;;;;7.50;3.00;;;22.90;51.00;;;;;;221685;1269;23894;-55
2024/01/27 18:13:15;;;;;;;4.80;2.50;;;22.90;50.80;;;;;;221862;1267;22517;-55
2024/01/27 18:18:20;;;;;;;8.00;3.10;;;22.90;50.70;;;;;;221936;1247;23906;-54
2024/01/27 18:23:25;;;;;;;7.50;3.00;;;22.90;50.80;;;;;;221902;1264;22539;-55
2024/01/27 18:28:31;;;;;;;11.10;3.40;;;22.80;51.00;;;;;;221971;1261;23731;-55
2024/01/27 18:33:36;;;;;;;12.80;4.70;;;23.00;51.10;;;;;;222027;1269;23702;-55
2024/01/27 18:38:41;;;;;;;17.40;5.00;;;23.30;52.60;;;;;;222050;1264;25233;-54
2024/01/27 18:43:45;;;;;;;13.70;5.10;;;23.40;51.60;;;;;;222170;1269;24241;-53
2024/01/27 18:48:50;;;;;;;12.40;4.50;;;23.40;52.40;;;;;;222167;1269;26620;-56
2024/01/27 18:53:55;;;;;;;11.00;4.30;;;23.20;52.50;;;;;;222049;1269;24200;-55
2024/01/27 18:58:59;;;;;;;11.90;4.10;;;23.30;52.10;;;;;;221988;1256;25922;-55
2024/01/27 19:04:04;;;;;;;7.30;3.70;;;23.20;52.00;;;;;;222011;1268;24203;-54
2024/01/27 19:09:08;;;;;;;7.80;3.70;;;23.20;51.80;;;;;;221697;1264;24948;-54
2024/01/27 19:14:13;;;;;;;10.70;3.30;;;23.20;51.10;;;;;;221778;1270;25029;-54
2024/01/27 19:19:19;;;;;;;7.60;3.80;;;23.30;51.20;;;;;;221907;1267;25284;-55
2024/01/27 19:24:23;;;;;;;7.30;3.40;;;23.10;51.70;;;;;;222259;1267;24368;-55
2024/01/27 19:29:28;;;;;;;19.40;9.10;;;23.10;51.20;;;;;;222057;1269;22545;-52
2024/01/27 19:34:33;;;;;;;46.30;35.30;;;23.10;51.10;;;;;;222284;1264;22597;-55
2024/01/27 19:39:42;;;;;;;28.70;21.30;;;23.00;50.40;;;;;;222130;1254;22547;-54
2024/01/27 19:44:46;;;;;;;30.80;20.50;;;22.90;50.30;;;;;;222311;1254;25305;-54
2024/01/27 19:49:51;;;;;;;25.50;18.00;;;22.90;50.50;;;;;;222148;1264;22521;-53
2024/01/27 19:54:57;;;;;;;24.80;17.60;;;22.80;50.60;;;;;;222300;1266;22524;-53
2024/01/27 20:00:03;;;;;;;25.40;17.60;;;22.70;51.30;;;;;;222265;1264;25962;-52
2024/01/27 20:05:11;;;;;;;25.40;16.50;;;22.70;51.20;;;;;;222077;1269;26296;-53
2024/01/27 20:10:15;;;;;;;21.30;16.00;;;22.80;51.00;;;;;;221805;1264;24202;-54
2024/01/27 20:15:20;;;;;;;34.30;15.60;;;22.60;51.50;;;;;;221919;1260;22524;-54
2024/01/27 20:20:26;;;;;;;20.40;14.70;;;22.60;51.10;;;;;;222094;1266;22603;-52
2024/01/27 20:25:31;;;;;;;20.40;14.30;;;22.70;50.80;;;;;;222110;1269;22524;-54
2024/01/27 20:30:36;;;;;;;19.90;14.20;;;22.70;51.10;;;;;;221832;1254;22521;-55
2024/01/27 20:35:42;;;;;;;19.60;13.80;;;22.80;50.60;;;;;;221082;1273;22654;-55
2024/01/27 20:40:48;;;;;;;18.40;12.50;;;23.10;50.70;;;;;;221202;1254;24220;-55
2024/01/27 20:45:52;;;;;;;17.70;12.50;;;23.30;49.60;;;;;;221114;1261;22626;-54
2024/01/27 20:50:57;;;;;;;18.00;12.60;;;23.40;49.50;;;;;;220945;1275;24202;-51
2024/01/27 20:56:03;;;;;;;19.00;12.20;;;23.50;49.30;;;;;;220916;1264;24305;-54
2024/01/27 21:01:08;;;;;;;16.80;11.30;;;23.40;49.60;;;;;;221842;1267;22649;-54
2024/01/27 21:06:13;;;;;;;18.90;11.40;;;23.30;49.70;;;;;;222013;1267;24267;-54
2024/01/27 21:11:19;;;;;;;15.70;10.40;;;23.30;49.70;;;;;;222117;1265;22767;-56
2024/01/27 21:16:23;;;;;;;14.90;10.30;;;23.30;49.80;;;;;;221938;1259;22520;-53
2024/01/27 21:21:28;;;;;;;14.40;10.80;;;23.30;49.50;;;;;;221872;1266;24198;-56
2024/01/27 21:26:33;;;;;;;16.30;10.90;;;23.30;49.70;;;;;;222158;1266;24229;-54
2024/01/27 21:31:37;;;;;;;14.80;10.50;;;23.30;49.50;;;;;;221826;1267;22521;-54
2024/01/27 21:36:43;;;;;;;13.50;10.00;;;23.40;49.30;;;;;;221648;1269;24257;-54
2024/01/27 21:41:50;;;;;;;15.00;9.50;;;23.40;49.00;;;;;;222054;1263;23918;-53
2024/01/27 21:46:55;;;;;;;14.30;9.20;;;23.20;49.20;;;;;;221755;1254;24410;-50
2024/01/27 21:52:00;;;;;;;9.90;8.80;;;23.10;49.10;;;;;;221515;1254;22746;-52
2024/01/27 21:57:05;;;;;;;13.70;8.90;;;23.10;49.10;;;;;;221733;1262;22621;-53
2024/01/27 22:02:10;;;;;;;13.00;8.50;;;23.20;48.90;;;;;;222193;1267;23261;-53
2024/01/27 22:07:15;;;;;;;11.20;7.80;;;23.20;49.60;;;;;;222161;1266;23527;-53
2024/01/27 22:12:19;;;;;;;11.10;8.40;;;23.40;49.00;;;;;;222239;1269;22636;-54
2024/01/27 22:17:24;;;;;;;11.80;8.30;;;23.50;48.80;;;;;;221888;1270;22543;-54
2024/01/27 22:22:29;;;;;;;10.20;8.10;;;23.60;48.60;;;;;;221752;1264;22526;-55
2024/01/27 22:27:38;;;;;;;13.50;8.90;;;23.60;48.90;;;;;;222045;1269;26195;-56
2024/01/27 22:32:43;;;;;;;12.70;7.60;;;23.60;48.80;;;;;;222063;1269;22608;-55
2024/01/27 22:37:48;;;;;;;9.80;7.70;;;23.50;48.90;;;;;;222341;1264;22786;-54
2024/01/27 22:42:52;;;;;;;8.90;7.30;;;23.50;48.80;;;;;;221945;1264;22663;-50
2024/01/27 22:47:57;;;;;;;10.60;7.20;;;23.60;49.10;;;;;;221958;1269;22525;-54
2024/01/27 22:53:03;;;;;;;9.20;7.70;;;23.60;48.60;;;;;;221739;1267;22478;-53
2024/01/27 22:58:08;;;;;;;9.50;7.20;;;23.50;49.10;;;;;;222163;1265;22517;-55
2024/01/27 23:03:13;;;;;;;10.50;7.20;;;23.40;48.90;;;;;;222541;1266;24356;-55
2024/01/27 23:08:18;;;;;;;9.20;7.70;;;23.40;48.90;;;;;;222154;1269;22558;-54
2024/01/27 23:13:22;;;;;;;10.90;7.50;;;23.30;49.30;;;;;;221853;1269;25225;-52
2024/01/27 23:18:27;;;;;;;10.90;8.30;;;23.20;49.20;;;;;;221643;1262;23027;-52
2024/01/27 23:23:33;;;;;;;11.10;7.20;;;23.10;49.50;;;;;;221887;1263;22793;-54
2024/01/27 23:28:37;;;;;;;8.20;7.00;;;23.10;49.50;;;;;;221713;1262;25277;-54
2024/01/27 23:33:41;;;;;;;7.80;6.30;;;23.20;49.50;;;;;;221618;1262;25410;-52
2024/01/27 23:38:46;;;;;;;9.00;6.50;;;23.40;49.30;;;;;;222042;1262;24327;-52
2024/01/27 23:43:52;;;;;;;7.70;6.20;;;23.60;48.70;;;;;;222040;1263;24196;-53
2024/01/27 23:48:58;;;;;;;8.40;6.20;;;23.70;48.60;;;;;;221896;1253;24237;-53
2024/01/27 23:54:12;;;;;;;9.70;6.00;;;23.90;48.40;;;;;;221865;1266;25790;-51
2024/01/27 23:59:20;;;;;;;9.20;5.80;;;23.80;48.40;;;;;;222211;1261;23235;-50
